Terminal Aerodrome Forecast
Issued by NWS Charleston, WV

Current Version | Previous Version | Graphics & Text | Print | Product List | Glossary On
Versions: 1 2 3 4 5 6 7 8 9 10 11 12 13 14 15 16 17 18 19 20 21 22
491
FTUS41 KRLX 221508 AAA
TAFHTS
TAF AMD
KHTS 221508Z 2215/2312 20007KT P6SM SCT250
     FM222200 19005KT 6SM SHRA OVC090
     FM230100 18005KT 3SM SHRA OVC025
     FM230400 18007KT P6SM VCSH BKN025=

USA.gov is the U.S. government's official web portal to all federal, state and local government web resources and services.